Time;durP1;ratioP1;P1;durP2;ratioP2;P2;SDS_P1;SDS_P2;PMS_P1;PMS_P2;Temp;Humidity;BMP_temperature;BMP_pressure;BME280_temperature;BME280_humidity;BME280_pressure;Samples;Min_cycle;Max_cycle;Signal;HPM_P1;HPM_P2
2021/11/27 00:02:04;;;;;;;8.02;4.60;;;;;;;3.49;100.00;97922.53;5171971;28;20026;-80
2021/11/27 00:04:35;;;;;;;8.25;4.82;;;;;;;3.49;100.00;97925.97;5174728;28;20206;-79
2021/11/27 00:07:06;;;;;;;9.60;4.72;;;;;;;3.52;100.00;97923.22;5175071;28;20036;-79
2021/11/27 00:09:36;;;;;;;10.65;4.82;;;;;;;3.50;100.00;97925.03;5170703;28;20482;-79
2021/11/27 00:12:07;;;;;;;10.73;4.95;;;;;;;3.44;100.00;97915.03;5175318;28;20125;-79
2021/11/27 00:14:37;;;;;;;11.02;4.80;;;;;;;3.42;100.00;97913.44;5178381;28;20062;-80
2021/11/27 00:17:08;;;;;;;11.85;5.45;;;;;;;3.31;100.00;97918.28;5167740;28;20022;-80
2021/11/27 00:19:39;;;;;;;9.88;4.38;;;;;;;3.38;100.00;97909.34;5167458;28;20031;-79
2021/11/27 00:22:09;;;;;;;13.15;5.00;;;;;;;3.39;100.00;97911.00;5172969;28;20041;-79
2021/11/27 00:24:39;;;;;;;9.18;5.18;;;;;;;3.40;100.00;97908.34;5172478;28;20029;-80
2021/11/27 00:27:10;;;;;;;10.77;5.10;;;;;;;3.35;100.00;97904.34;5167415;28;20412;-80
2021/11/27 00:29:40;;;;;;;8.48;4.95;;;;;;;3.36;100.00;97900.84;5172197;28;20152;-80
2021/11/27 00:32:11;;;;;;;9.60;4.93;;;;;;;3.38;100.00;97902.41;5171860;28;20054;-80
2021/11/27 00:34:41;;;;;;;10.25;4.75;;;;;;;3.33;100.00;97903.59;5173254;28;20097;-80
2021/11/27 00:37:12;;;;;;;11.93;5.68;;;;;;;3.30;100.00;97895.97;5172723;28;20498;-80
2021/11/27 00:39:42;;;;;;;9.95;5.45;;;;;;;3.22;100.00;97898.91;5168225;28;20105;-79
2021/11/27 00:42:14;;;;;;;11.00;5.00;;;;;;;3.23;100.00;97897.19;5169860;28;20494;-79
2021/11/27 00:44:45;;;;;;;10.32;4.82;;;;;;;3.24;100.00;97897.13;5176385;28;20117;-79
2021/11/27 00:47:15;;;;;;;9.20;4.95;;;;;;;3.22;100.00;97895.53;5169069;28;20512;-80
2021/11/27 00:49:48;;;;;;;10.82;5.30;;;;;;;3.21;100.00;97897.25;5169708;28;20018;-79
2021/11/27 00:52:20;;;;;;;10.15;5.28;;;;;;;3.30;100.00;97893.38;5172905;28;20034;-80
2021/11/27 00:54:50;;;;;;;9.75;5.07;;;;;;;3.31;100.00;97892.47;5169900;28;20018;-80
2021/11/27 00:57:20;;;;;;;9.82;4.57;;;;;;;3.28;100.00;97895.22;5175946;28;20089;-80
2021/11/27 00:59:51;;;;;;;10.18;4.72;;;;;;;3.31;100.00;97895.91;5170796;28;20033;-80
2021/11/27 01:02:21;;;;;;;10.32;4.90;;;;;;;3.38;100.00;97899.84;5173006;28;20603;-80
2021/11/27 01:04:52;;;;;;;9.00;4.72;;;;;;;3.50;100.00;97890.66;5163917;28;20035;-80
2021/11/27 01:07:22;;;;;;;7.45;4.30;;;;;;;3.46;100.00;97889.13;5166621;28;20128;-81
2021/11/27 01:09:53;;;;;;;9.10;4.30;;;;;;;3.50;100.00;97890.66;5167833;28;20019;-80
2021/11/27 01:12:24;;;;;;;7.93;4.00;;;;;;;3.54;100.00;97889.59;5177268;28;20030;-80
2021/11/27 01:14:54;;;;;;;7.80;4.35;;;;;;;3.49;100.00;97882.06;5174277;28;20034;-80
2021/11/27 01:17:24;;;;;;;8.13;4.38;;;;;;;3.55;100.00;97892.09;5167910;28;20267;-80
2021/11/27 01:19:55;;;;;;;8.45;4.30;;;;;;;3.51;100.00;97890.56;5166929;28;20023;-80
2021/11/27 01:22:25;;;;;;;7.45;4.15;;;;;;;3.48;100.00;97882.13;5173682;28;20210;-80
2021/11/27 01:24:56;;;;;;;9.18;4.15;;;;;;;3.53;100.00;97890.50;5177960;28;20476;-79
2021/11/27 01:27:27;;;;;;;8.00;4.35;;;;;;;3.51;100.00;97890.56;5175723;28;20030;-80
2021/11/27 01:29:57;;;;;;;9.20;4.00;;;;;;;3.47;100.00;97883.06;5178008;28;20315;-80
2021/11/27 01:32:28;;;;;;;6.93;4.20;;;;;;;3.62;100.00;97881.38;5168770;28;20048;-80
2021/11/27 01:34:58;;;;;;;11.10;4.28;;;;;;;3.58;100.00;97885.94;5171736;28;20034;-80
2021/11/27 01:37:29;;;;;;;8.27;4.22;;;;;;;3.58;100.00;97882.44;5177944;28;20072;-80
2021/11/27 01:40:04;;;;;;;9.30;4.18;;;;;;;3.58;100.00;97889.38;5174245;28;20041;-80
2021/11/27 01:42:35;;;;;;;9.63;4.55;;;;;;;3.60;100.00;97884.97;5170262;28;20504;-80
2021/11/27 01:45:07;;;;;;;8.70;4.38;;;;;;;3.58;100.00;97882.44;5174068;28;20089;-80
2021/11/27 01:47:38;;;;;;;7.97;4.55;;;;;;;3.58;100.00;97878.19;5166822;28;20022;-80
2021/11/27 01:50:09;;;;;;;9.02;4.72;;;;;;;3.58;100.00;97887.59;5174214;28;20047;-80
2021/11/27 01:52:39;;;;;;;9.63;4.95;;;;;;;3.60;100.00;97879.81;5173215;28;20033;-80
2021/11/27 01:55:11;;;;;;;10.45;5.03;;;;;;;3.55;100.00;97878.34;5175350;28;20099;-80
2021/11/27 01:57:43;;;;;;;8.73;5.20;;;;;;;3.64;100.00;97874.38;5174720;28;20030;-80
2021/11/27 02:00:17;;;;;;;9.45;4.88;;;;;;;3.65;100.00;97873.47;5168850;28;20018;-80
2021/11/27 02:02:48;;;;;;;9.77;4.60;;;;;;;3.61;100.00;97876.31;5174196;28;20017;-80
2021/11/27 02:05:20;;;;;;;9.40;4.90;;;;;;;3.52;100.00;97875.94;5174394;28;20030;-80
2021/11/27 02:07:52;;;;;;;12.20;5.45;;;;;;;3.46;100.00;97868.47;5174699;28;20036;-79
2021/11/27 02:10:22;;;;;;;10.43;5.28;;;;;;;3.46;100.00;97863.31;5176311;28;20496;-80
2021/11/27 02:12:53;;;;;;;8.93;5.45;;;;;;;3.38;100.00;97860.31;5174968;28;20025;-80
2021/11/27 02:15:23;;;;;;;12.02;5.30;;;;;;;3.26;100.00;97864.34;5175318;28;20570;-80
2021/11/27 02:17:54;;;;;;;10.90;5.60;;;;;;;3.22;100.00;97854.25;5163648;28;20037;-79
2021/11/27 02:20:25;;;;;;;12.75;5.53;;;;;;;3.10;100.00;97857.44;5171337;28;20033;-80
2021/11/27 02:22:55;;;;;;;11.63;5.55;;;;;;;3.15;100.00;97858.88;5176795;28;20464;-80
2021/11/27 02:25:26;;;;;;;9.65;5.22;;;;;;;3.13;100.00;97852.97;5173289;28;20088;-80
2021/11/27 02:27:56;;;;;;;10.50;5.53;;;;;;;3.28;100.00;97852.19;5175994;28;20030;-80
2021/11/27 02:30:27;;;;;;;11.32;5.30;;;;;;;3.21;100.00;97860.31;5166086;28;20435;-80
2021/11/27 02:32:58;;;;;;;10.77;5.60;;;;;;;3.27;100.00;97854.84;5172549;28;20026;-80
2021/11/27 02:35:28;;;;;;;8.98;5.05;;;;;;;3.26;100.00;97848.88;5173875;28;20034;-80
2021/11/27 02:37:59;;;;;;;10.05;5.05;;;;;;;3.29;100.00;97853.00;5174158;28;20040;-80
2021/11/27 02:40:32;;;;;;;9.10;4.85;;;;;;;3.35;100.00;97850.16;5174086;28;20062;-80
2021/11/27 02:43:03;;;;;;;10.00;4.63;;;;;;;3.48;100.00;97846.00;5175607;28;20025;-80
2021/11/27 02:45:33;;;;;;;8.48;4.47;;;;;;;3.45;100.00;97841.00;5175805;28;20045;-80
2021/11/27 02:48:04;;;;;;;7.93;4.70;;;;;;;3.59;100.00;97845.38;5172426;28;20022;-79
2021/11/27 02:50:34;;;;;;;9.32;4.70;;;;;;;3.49;100.00;97833.03;5168109;28;20026;-80
2021/11/27 02:53:05;;;;;;;10.13;5.18;;;;;;;3.59;100.00;97839.41;5177570;28;20030;-80
2021/11/27 02:55:36;;;;;;;7.97;4.47;;;;;;;3.64;100.00;97840.00;5171387;28;20022;-80
2021/11/27 02:58:06;;;;;;;9.60;5.15;;;;;;;3.60;100.00;97847.06;5176847;28;20472;-80
2021/11/27 03:00:37;;;;;;;8.63;4.45;;;;;;;3.65;100.00;97846.81;5163837;28;20396;-80
2021/11/27 03:03:08;;;;;;;9.48;5.00;;;;;;;3.63;100.00;97838.34;5172342;28;20030;-80
2021/11/27 03:05:38;;;;;;;9.43;4.70;;;;;;;3.62;100.00;97841.84;5172089;28;20562;-80
2021/11/27 03:08:08;;;;;;;9.13;4.90;;;;;;;3.64;100.00;97840.00;5175423;28;20022;-80
2021/11/27 03:10:39;;;;;;;10.32;5.25;;;;;;;3.64;100.00;97840.00;5173554;28;20061;-80
2021/11/27 03:13:09;;;;;;;8.95;4.97;;;;;;;3.59;100.00;97842.81;5174405;28;20033;-80
2021/11/27 03:15:43;;;;;;;9.20;5.20;;;;;;;3.53;100.00;97841.47;5173316;28;20030;-80
2021/11/27 03:18:13;;;;;;;9.18;4.97;;;;;;;3.56;100.00;97846.47;5170837;28;20092;-80
2021/11/27 03:20:43;;;;;;;9.25;5.00;;;;;;;3.60;100.00;97852.22;5175657;28;20030;-80
2021/11/27 03:23:14;;;;;;;10.65;5.75;;;;;;;3.58;100.00;97846.31;5178273;28;20531;-80
2021/11/27 03:25:45;;;;;;;10.25;5.40;;;;;;;3.56;100.00;97846.47;5173877;28;20442;-80
2021/11/27 03:28:15;;;;;;;9.93;4.85;;;;;;;3.59;100.00;97860.88;5173300;28;20026;-81
2021/11/27 03:30:46;;;;;;;10.32;5.32;;;;;;;3.68;100.00;97852.69;5163004;28;20038;-80
2021/11/27 03:33:16;;;;;;;10.60;5.88;;;;;;;3.62;100.00;97852.97;5171311;28;20040;-80
2021/11/27 03:35:47;;;;;;;11.35;5.38;;;;;;;3.67;100.00;97860.50;5172937;28;20183;-80
2021/11/27 03:38:18;;;;;;;10.65;5.65;;;;;;;3.60;100.00;97849.63;5173397;28;20107;-80
2021/11/27 03:40:48;;;;;;;11.00;5.47;;;;;;;3.63;100.00;97849.47;5172340;28;20028;-80
2021/11/27 03:43:19;;;;;;;9.95;5.32;;;;;;;3.70;100.00;97853.44;5174235;28;20040;-80
2021/11/27 03:45:50;;;;;;;9.80;5.20;;;;;;;3.72;100.00;97851.59;5172373;28;20085;-80
2021/11/27 03:48:36;;;;;;;11.18;6.03;;;;;;;3.75;100.00;97846.28;5167046;28;20109;-80
2021/11/27 03:51:11;;;;;;;10.73;5.75;;;;;;;3.80;100.00;97851.19;5167591;28;20023;-80
2021/11/27 03:53:42;;;;;;;13.23;5.50;;;;;;;3.82;100.00;97849.38;5173510;28;20064;-80
2021/11/27 03:56:17;;;;;;;11.07;5.40;;;;;;;3.81;100.00;97847.69;5173915;28;20031;-80
2021/11/27 03:58:49;;;;;;;9.70;5.35;;;;;;;3.78;100.00;97850.44;5170602;28;20451;-80
2021/11/27 04:01:21;;;;;;;14.70;6.25;;;;;;;3.77;100.00;97853.94;5162765;28;20030;-80
2021/11/27 04:03:54;;;;;;;11.25;6.15;;;;;;;3.79;100.00;97850.34;5173915;28;20102;-80
2021/11/27 04:06:24;;;;;;;10.40;5.43;;;;;;;3.84;100.00;97855.28;5172007;28;20065;-80
2021/11/27 04:08:56;;;;;;;12.60;6.15;;;;;;;3.71;100.00;97856.81;5173749;28;20424;-80
2021/11/27 04:11:28;;;;;;;10.88;5.35;;;;;;;3.68;100.00;97855.25;5171804;28;20480;-80
2021/11/27 04:13:58;;;;;;;11.95;5.72;;;;;;;3.78;100.00;97861.59;5173958;28;20072;-79
2021/11/27 04:16:29;;;;;;;11.00;5.75;;;;;;;3.74;100.00;97851.50;5170872;28;20447;-80
2021/11/27 04:18:59;;;;;;;11.52;5.03;;;;;;;3.72;100.00;97854.19;5171260;28;20018;-80
2021/11/27 04:21:30;;;;;;;13.57;6.63;;;;;;;3.61;100.00;97840.16;5176687;28;20057;-80
2021/11/27 04:24:00;;;;;;;12.20;5.95;;;;;;;3.61;100.00;97846.16;5180192;28;20057;-80
2021/11/27 04:26:31;;;;;;;9.65;5.50;;;;;;;3.62;100.00;97839.25;5174170;28;20033;-80
2021/11/27 04:29:01;;;;;;;12.32;6.40;;;;;;;3.70;100.00;97847.41;5180333;28;20041;-80
2021/11/27 04:31:32;;;;;;;12.07;5.85;;;;;;;3.67;100.00;97848.44;5185967;28;20395;-80
2021/11/27 04:34:02;;;;;;;14.43;6.50;;;;;;;3.59;100.00;97853.13;5173033;28;20078;-80
2021/11/27 04:36:33;;;;;;;10.98;5.93;;;;;;;3.58;100.00;97856.63;5171216;28;20034;-80
2021/11/27 04:39:04;;;;;;;12.07;5.88;;;;;;;3.51;100.00;97869.09;5179402;28;20022;-80
2021/11/27 04:41:35;;;;;;;12.05;6.38;;;;;;;3.58;100.00;97872.13;5172423;28;20031;-80
2021/11/27 04:44:05;;;;;;;14.52;7.13;;;;;;;3.64;100.00;97879.53;5177943;28;20026;-80
2021/11/27 04:46:35;;;;;;;11.57;6.10;;;;;;;3.58;100.00;97881.63;5172087;28;20033;-81
2021/11/27 04:49:06;;;;;;;13.88;6.63;;;;;;;3.60;100.00;97875.44;5170234;28;20018;-80
2021/11/27 04:51:36;;;;;;;12.38;6.10;;;;;;;3.58;100.00;97875.63;5176481;28;20034;-80
2021/11/27 04:54:07;;;;;;;14.45;6.38;;;;;;;3.65;100.00;97870.88;5178028;28;20030;-80
2021/11/27 04:56:37;;;;;;;13.50;6.22;;;;;;;3.53;100.00;97867.28;5176523;28;20022;-80
2021/11/27 04:59:08;;;;;;;15.30;6.63;;;;;;;3.50;100.00;97870.03;5178675;28;20085;-80
2021/11/27 05:01:38;;;;;;;15.27;6.45;;;;;;;3.48;100.00;97874.41;5175761;28;20031;-80
2021/11/27 05:04:09;;;;;;;14.77;6.40;;;;;;;3.47;100.00;97857.25;5174137;28;20034;-80
2021/11/27 05:06:39;;;;;;;13.52;6.45;;;;;;;3.44;100.00;97873.75;5175501;28;20047;-80
2021/11/27 05:09:11;;;;;;;12.25;6.20;;;;;;;3.39;100.00;97859.41;5175978;28;20022;-80
2021/11/27 05:11:41;;;;;;;13.52;6.65;;;;;;;3.44;100.00;97857.41;5177923;28;20021;-80
2021/11/27 05:14:11;;;;;;;13.45;7.10;;;;;;;3.55;100.00;97865.44;5175188;28;20026;-79
2021/11/27 05:16:42;;;;;;;16.17;6.88;;;;;;;3.39;100.00;97870.53;5169746;28;20038;-80
2021/11/27 05:19:13;;;;;;;12.60;6.38;;;;;;;3.36;100.00;97877.63;5185937;28;20124;-80
2021/11/27 05:21:43;;;;;;;11.20;5.72;;;;;;;3.42;100.00;97875.56;5175290;28;20018;-80
2021/11/27 05:24:14;;;;;;;13.68;6.57;;;;;;;3.43;100.00;97876.38;5177066;28;20034;-80
2021/11/27 05:26:44;;;;;;;14.55;6.88;;;;;;;3.39;100.00;97878.28;5176744;28;20109;-80
2021/11/27 05:29:14;;;;;;;14.85;6.82;;;;;;;3.47;100.00;97883.06;5174869;28;20103;-80
2021/11/27 05:31:46;;;;;;;19.98;6.80;;;;;;;3.41;100.00;97891.13;5176849;28;20097;-80
2021/11/27 05:36:56;;;;;;;15.65;6.78;;;;;;;3.33;100.00;97893.25;5176240;28;20022;-80
2021/11/27 05:39:26;;;;;;;14.00;6.55;;;;;;;3.29;100.00;97894.28;5171701;28;20384;-80
2021/11/27 05:41:57;;;;;;;12.77;6.18;;;;;;;3.35;100.00;97904.34;5174838;28;20084;-80
2021/11/27 05:44:27;;;;;;;15.63;7.07;;;;;;;3.31;100.00;97902.78;5172441;28;20022;-80
2021/11/27 05:46:57;;;;;;;13.13;6.32;;;;;;;3.30;100.00;97901.13;5183919;23;20049;-78
2021/11/27 05:49:29;;;;;;;15.98;7.47;;;;;;;3.30;100.00;97906.28;5179211;28;20096;-79
2021/11/27 05:51:59;;;;;;;14.73;7.03;;;;;;;3.27;100.00;97909.03;5172773;28;20034;-80
2021/11/27 05:54:30;;;;;;;15.65;7.03;;;;;;;3.35;100.00;97909.50;5170662;28;20113;-79
2021/11/27 05:57:01;;;;;;;17.67;7.22;;;;;;;3.24;100.00;97906.59;5173138;28;20391;-80
2021/11/27 05:59:31;;;;;;;16.90;7.35;;;;;;;3.25;100.00;97910.84;5169863;28;20097;-80
2021/11/27 06:02:02;;;;;;;15.00;6.75;;;;;;;3.23;100.00;97913.50;5172141;28;20546;-79
2021/11/27 06:04:33;;;;;;;13.65;6.63;;;;;;;3.24;100.00;97924.66;5174356;28;20491;-78
2021/11/27 06:07:03;;;;;;;13.93;6.15;;;;;;;3.27;100.00;97911.59;5177741;28;20044;-80
2021/11/27 06:09:33;;;;;;;12.80;6.32;;;;;;;3.27;100.00;97911.59;5156590;28;20077;-81
2021/11/27 06:12:04;;;;;;;14.18;6.85;;;;;;;3.24;100.00;97922.06;5173674;28;20475;-81
2021/11/27 06:14:35;;;;;;;13.70;6.82;;;;;;;3.21;100.00;97919.66;5169991;28;20030;-81
2021/11/27 06:17:05;;;;;;;16.35;6.93;;;;;;;3.28;100.00;97926.16;5179332;28;20036;-78
2021/11/27 06:19:36;;;;;;;13.00;6.65;;;;;;;3.27;100.00;97927.94;5177056;28;20024;-79
2021/11/27 06:22:06;;;;;;;15.50;6.55;;;;;;;3.25;100.00;97926.31;5169697;28;20088;-81
2021/11/27 06:24:37;;;;;;;14.18;6.07;;;;;;;3.30;100.00;97932.09;5172883;28;20061;-81
2021/11/27 06:27:07;;;;;;;15.30;6.57;;;;;;;3.30;100.00;97930.34;5169222;28;20030;-79
2021/11/27 06:29:37;;;;;;;15.40;6.72;;;;;;;3.36;100.00;97931.81;5168594;28;20036;-81
2021/11/27 06:32:09;;;;;;;15.07;6.60;;;;;;;3.41;100.00;97930.69;5172823;28;20024;-78
2021/11/27 06:34:40;;;;;;;10.38;5.50;;;;;;;3.36;100.00;97936.97;5160411;28;20097;-78
2021/11/27 06:37:10;;;;;;;12.35;5.75;;;;;;;3.43;100.00;97938.31;5165697;28;20032;-80
2021/11/27 06:39:41;;;;;;;14.50;6.60;;;;;;;3.38;100.00;97940.31;5171790;28;20383;-80
2021/11/27 06:42:11;;;;;;;17.98;6.78;;;;;;;3.29;100.00;97941.59;5161270;28;20026;-78
2021/11/27 06:44:48;;;;;;;11.98;6.32;;;;;;;3.24;100.00;97935.84;5171979;28;20034;-78
2021/11/27 06:47:20;;;;;;;13.00;6.00;;;;;;;3.29;100.00;97940.75;5177647;28;20225;-80
2021/11/27 06:49:51;;;;;;;16.27;6.55;;;;;;;3.31;100.00;97928.59;5170806;28;20013;-82
2021/11/27 06:52:22;;;;;;;14.05;6.65;;;;;;;3.24;100.00;97937.56;5168239;28;20041;-78
2021/11/27 06:54:52;;;;;;;15.25;6.07;;;;;;;3.31;100.00;97944.06;5171252;28;20474;-78
2021/11/27 06:57:22;;;;;;;13.00;6.15;;;;;;;3.27;100.00;97940.00;5169962;28;20038;-78
2021/11/27 06:59:53;;;;;;;13.20;6.30;;;;;;;3.25;100.00;97946.97;5170741;28;20139;-78
2021/11/27 07:02:23;;;;;;;11.65;5.97;;;;;;;3.40;100.00;97954.78;5162218;28;20034;-80
2021/11/27 07:04:53;;;;;;;14.80;7.25;;;;;;;3.40;100.00;97953.97;5173761;28;20534;-81
2021/11/27 07:07:24;;;;;;;13.43;6.15;;;;;;;3.39;100.00;97954.88;5166589;28;20091;-80
2021/11/27 07:09:55;;;;;;;14.88;6.43;;;;;;;3.41;100.00;97955.63;5165116;28;20526;-79
2021/11/27 07:12:25;;;;;;;11.48;5.47;;;;;;;3.45;100.00;97959.72;5165436;28;20113;-78
2021/11/27 07:14:56;;;;;;;12.82;5.72;;;;;;;3.40;100.00;97970.28;5167558;28;20033;-81
2021/11/27 07:17:26;;;;;;;13.88;6.18;;;;;;;3.43;100.00;97967.56;5173602;28;20034;-78
2021/11/27 07:19:58;;;;;;;16.20;5.70;;;;;;;3.42;100.00;97973.63;5169206;28;20022;-80
2021/11/27 07:22:28;;;;;;;13.43;6.25;;;;;;;3.50;100.00;97975.84;5170281;28;20068;-82
2021/11/27 07:24:59;;;;;;;13.10;6.45;;;;;;;3.44;100.00;97968.38;5165408;28;20045;-78
2021/11/27 07:27:29;;;;;;;12.73;6.30;;;;;;;3.50;100.00;97971.50;5170472;28;20368;-80
2021/11/27 07:30:02;;;;;;;12.20;6.00;;;;;;;3.47;100.00;97975.97;5178012;28;20065;-82
2021/11/27 07:32:34;;;;;;;14.23;6.47;;;;;;;3.56;100.00;97975.53;5173686;28;20294;-79
2021/11/27 07:35:05;;;;;;;12.25;5.63;;;;;;;3.50;100.00;97971.50;5175015;28;20033;-80
2021/11/27 07:37:35;;;;;;;11.60;5.88;;;;;;;3.57;100.00;97972.84;5162927;28;20022;-78
2021/11/27 07:40:07;;;;;;;15.88;6.03;;;;;;;3.57;100.00;97977.22;5162336;28;20027;-80
2021/11/27 07:42:38;;;;;;;14.73;6.20;;;;;;;3.49;100.00;97979.31;5164225;28;20052;-79
2021/11/27 07:45:09;;;;;;;14.07;6.70;;;;;;;3.53;100.00;97984.25;5163467;28;20472;-81
2021/11/27 07:47:40;;;;;;;11.60;5.97;;;;;;;3.67;100.00;97984.41;5172349;28;20503;-77
2021/11/27 07:50:10;;;;;;;14.93;7.13;;;;;;;3.64;100.00;97979.41;5163459;28;20113;-77
2021/11/27 07:52:42;;;;;;;12.43;6.15;;;;;;;3.65;100.00;97981.06;5163204;28;20028;-82
2021/11/27 07:55:12;;;;;;;10.93;6.22;;;;;;;3.76;100.00;97987.38;5165788;28;20022;-78
2021/11/27 07:57:43;;;;;;;15.32;6.72;;;;;;;3.76;100.00;97986.56;5162630;28;20083;-81
2021/11/27 08:00:14;;;;;;;13.40;6.60;;;;;;;3.67;100.00;97990.44;5162510;28;20040;-81
2021/11/27 08:02:44;;;;;;;16.85;7.05;;;;;;;3.61;100.00;97995.06;5174307;28;20025;-81
2021/11/27 08:05:14;;;;;;;13.88;6.30;;;;;;;3.73;100.00;97999.59;5165520;28;20041;-78
2021/11/27 08:07:45;;;;;;;12.55;6.00;;;;;;;3.65;100.00;98007.72;5163454;28;20506;-77
2021/11/27 08:10:16;;;;;;;13.07;6.07;;;;;;;3.72;100.00;98001.34;5165160;28;20112;-80
2021/11/27 08:12:46;;;;;;;11.52;6.28;;;;;;;3.63;100.00;98006.97;5167786;28;20030;-77
2021/11/27 08:15:16;;;;;;;17.55;6.38;;;;;;;3.65;100.00;98007.72;5169078;28;20389;-78
2021/11/27 08:17:47;;;;;;;14.98;6.55;;;;;;;3.68;100.00;98011.91;5175961;28;20023;-77
2021/11/27 08:20:17;;;;;;;14.88;6.80;;;;;;;3.74;100.00;98009.84;5171341;28;20069;-77
2021/11/27 08:22:49;;;;;;;16.35;7.28;;;;;;;3.71;100.00;98006.59;5169380;28;20077;-82
2021/11/27 08:25:19;;;;;;;13.30;6.50;;;;;;;3.78;100.00;98000.22;5167577;28;20547;-78
2021/11/27 08:27:50;;;;;;;12.65;6.78;;;;;;;3.86;100.00;98008.41;5170009;28;20022;-80
2021/11/27 08:30:20;;;;;;;11.75;6.30;;;;;;;3.99;100.00;98007.72;5166128;28;20484;-84
2021/11/27 08:32:51;;;;;;;14.05;6.80;;;;;;;3.93;100.00;98013.19;5177818;28;20017;-81
2021/11/27 08:35:21;;;;;;;15.82;7.22;;;;;;;4.04;100.00;98004.91;5163084;28;20041;-77
2021/11/27 08:37:52;;;;;;;14.30;6.10;;;;;;;4.06;100.00;98013.41;5170487;28;20493;-77
2021/11/27 08:40:22;;;;;;;15.35;6.63;;;;;;;4.14;100.00;98011.28;5169861;28;20582;-81
2021/11/27 08:42:53;;;;;;;13.63;6.20;;;;;;;4.25;100.00;98020.16;5168649;28;20373;-80
2021/11/27 08:45:24;;;;;;;12.38;6.18;;;;;;;4.22;100.00;98020.31;5169847;28;20072;-81
2021/11/27 08:47:54;;;;;;;12.20;6.68;;;;;;;4.32;100.00;98028.44;5179238;28;20033;-78
2021/11/27 08:50:25;;;;;;;12.85;6.22;;;;;;;4.38;100.00;98026.38;5171370;28;20160;-80
2021/11/27 08:52:55;;;;;;;13.40;6.07;;;;;;;4.31;100.00;98029.34;5168849;28;20050;-77
2021/11/27 08:55:26;;;;;;;12.60;5.90;;;;;;;4.37;100.00;98034.19;5170352;28;20022;-79
2021/11/27 08:57:56;;;;;;;11.23;5.95;;;;;;;4.33;100.00;98033.50;5162963;28;20479;-78
2021/11/27 09:00:27;;;;;;;12.43;6.15;;;;;;;4.23;100.00;98032.31;5164228;28;20026;-83
2021/11/27 09:02:58;;;;;;;10.93;5.88;;;;;;;4.30;100.00;98032.84;5162007;28;20458;-78
2021/11/27 09:05:28;;;;;;;12.75;6.20;;;;;;;4.38;100.00;98034.13;5167063;28;20423;-84
2021/11/27 09:07:59;;;;;;;11.52;5.30;;;;;;;4.44;100.00;98038.97;5173787;28;20034;-83
2021/11/27 09:10:30;;;;;;;11.13;5.63;;;;;;;4.42;100.00;98034.78;5163227;28;20033;-82
2021/11/27 09:13:00;;;;;;;13.02;6.32;;;;;;;4.45;100.00;98042.41;5166942;28;20495;-79
2021/11/27 09:15:31;;;;;;;11.50;5.95;;;;;;;4.46;100.00;98042.31;5170811;28;20420;-83
2021/11/27 09:18:03;;;;;;;14.60;6.25;;;;;;;4.49;100.00;98034.38;5173958;28;20033;-78
2021/11/27 09:20:33;;;;;;;12.25;5.88;;;;;;;4.62;100.00;98040.59;5173929;28;20065;-78
2021/11/27 09:23:04;;;;;;;12.75;5.70;;;;;;;4.59;100.00;98045.94;5165680;28;20069;-81
2021/11/27 09:25:35;;;;;;;13.90;6.53;;;;;;;4.56;100.00;98045.25;5173648;28;20036;-81
2021/11/27 09:28:06;;;;;;;12.93;5.90;;;;;;;4.45;100.00;98053.56;5172552;28;20034;-83
2021/11/27 09:30:36;;;;;;;11.75;6.07;;;;;;;4.71;100.00;98058.25;5165400;28;20088;-79
2021/11/27 09:33:07;;;;;;;12.48;5.90;;;;;;;4.79;100.00;98066.41;5173301;28;20037;-82
2021/11/27 09:35:37;;;;;;;13.15;6.45;;;;;;;4.67;100.00;98051.53;5178754;28;20104;-82
2021/11/27 09:38:08;;;;;;;11.00;5.80;;;;;;;4.66;100.00;98057.63;5173845;28;20476;-79
2021/11/27 09:40:39;;;;;;;14.50;6.22;;;;;;;4.70;100.00;98061.75;5173426;28;20431;-81
2021/11/27 09:43:10;;;;;;;11.27;5.57;;;;;;;4.79;100.00;98056.06;5163302;28;20034;-80
2021/11/27 09:45:41;;;;;;;10.93;5.75;;;;;;;4.83;100.00;98065.34;5174896;28;20037;-83
2021/11/27 09:48:13;;;;;;;12.93;6.30;;;;;;;5.03;100.00;98067.72;5163516;28;20461;-77
2021/11/27 09:50:44;;;;;;;10.82;5.47;;;;;;;5.01;100.00;98069.53;5167454;28;20038;-79
2021/11/27 09:53:14;;;;;;;10.07;5.50;;;;;;;4.89;100.00;98067.63;5169269;28;20057;-79
2021/11/27 09:55:47;;;;;;;11.40;5.63;;;;;;;4.86;100.00;98061.75;5159370;28;20092;-82
2021/11/27 09:58:18;;;;;;;12.05;5.75;;;;;;;4.85;100.00;98070.44;5167134;28;20089;-79
2021/11/27 10:00:49;;;;;;;12.40;6.25;;;;;;;4.89;100.00;98070.19;5172615;28;20022;-78
2021/11/27 10:03:20;;;;;;;13.10;5.70;;;;;;;5.02;100.00;98063.47;5174913;28;20534;-79
2021/11/27 10:05:51;;;;;;;10.48;5.68;;;;;;;5.11;100.00;98065.53;5164802;28;20472;-82
2021/11/27 10:08:22;;;;;;;10.07;5.35;;;;;;;5.11;100.00;98068.13;5171340;28;20041;-81
2021/11/27 10:10:52;;;;;;;10.82;5.47;;;;;;;5.17;100.00;98065.19;5172814;28;20034;-78
2021/11/27 10:13:23;;;;;;;10.70;5.30;;;;;;;5.26;100.00;98069.91;5165942;28;20121;-79
2021/11/27 10:15:53;;;;;;;10.68;6.05;;;;;;;5.21;100.00;98065.88;5171826;28;20509;-78
2021/11/27 10:18:25;;;;;;;8.93;5.45;;;;;;;5.27;100.00;98068.13;5178929;28;20022;-80
2021/11/27 10:21:14;;;;;;;12.38;5.80;;;;;;;5.05;100.00;98073.66;5160686;28;20496;-79
2021/11/27 10:23:47;;;;;;;10.55;5.63;;;;;;;5.11;100.00;98062.94;5167780;28;20034;-80
2021/11/27 10:26:37;;;;;;;9.35;5.22;;;;;;;5.13;100.00;98068.88;5170656;28;20042;-81
2021/11/27 10:29:26;;;;;;;9.75;4.65;;;;;;;5.22;100.00;98078.75;5168170;28;20026;-82
2021/11/27 10:32:07;;;;;;;10.85;5.63;;;;;;;5.36;100.00;98072.81;5169089;28;20290;-78
2021/11/27 10:34:46;;;;;;;8.40;5.03;;;;;;;5.28;99.87;98078.41;5165045;28;20409;-78
2021/11/27 10:37:28;;;;;;;11.57;5.63;;;;;;;5.38;100.00;98088.19;5170609;28;20092;-78
2021/11/27 10:40:00;;;;;;;10.85;5.25;;;;;;;5.45;100.00;98086.09;5172033;28;20129;-78
2021/11/27 10:42:33;;;;;;;10.95;5.43;;;;;;;5.37;100.00;98098.63;5166997;28;20022;-80
2021/11/27 10:45:16;;;;;;;12.35;5.07;;;;;;;5.36;100.00;98093.53;5164250;28;20046;-80
2021/11/27 10:47:48;;;;;;;9.50;5.30;;;;;;;5.28;100.00;98098.28;5160566;28;20026;-81
2021/11/27 10:50:21;;;;;;;8.23;5.32;;;;;;;5.30;100.00;98099.88;5163971;28;20037;-80
2021/11/27 10:52:53;;;;;;;11.52;5.53;;;;;;;5.15;100.00;98095.50;5165994;28;20026;-78
2021/11/27 10:55:26;;;;;;;10.18;5.50;;;;;;;5.19;100.00;98098.78;5170682;28;20136;-80
2021/11/27 10:58:01;;;;;;;13.35;6.13;;;;;;;5.19;100.00;98088.44;5168598;28;20034;-80
2021/11/27 11:00:41;;;;;;;9.40;5.40;;;;;;;5.10;100.00;98094.94;5178268;28;20447;-81
2021/11/27 11:03:35;;;;;;;9.82;5.63;;;;;;;5.18;100.00;98094.53;5166051;28;20568;-80
2021/11/27 11:06:20;;;;;;;12.15;6.10;;;;;;;5.20;100.00;98092.69;5164040;28;20046;-79
2021/11/27 11:08:52;;;;;;;10.27;5.33;;;;;;;5.33;100.00;98101.47;5182081;28;20530;-82
2021/11/27 11:11:23;;;;;;;10.32;5.55;;;;;;;5.31;100.00;98098.94;5156945;28;20056;-79
2021/11/27 11:13:56;;;;;;;9.38;5.15;;;;;;;5.29;100.00;98095.63;5167521;28;20030;-78
2021/11/27 11:16:29;;;;;;;10.32;5.32;;;;;;;5.32;100.00;98098.03;5171598;28;20048;-80
2021/11/27 11:19:15;;;;;;;9.88;5.85;;;;;;;5.31;100.00;98098.94;5190859;28;20058;-79
2021/11/27 11:22:14;;;;;;;10.55;5.75;;;;;;;5.40;100.00;98103.63;5166379;28;20030;-80
2021/11/27 11:24:46;;;;;;;11.18;5.88;;;;;;;5.33;100.00;98104.88;5171301;28;20028;-78
2021/11/27 11:27:32;;;;;;;9.95;5.43;;;;;;;5.22;100.00;98099.47;5166833;28;20512;-80
2021/11/27 11:30:05;;;;;;;9.75;5.45;;;;;;;5.21;100.00;98102.97;5167121;28;20037;-78
2021/11/27 11:32:36;;;;;;;11.45;6.07;;;;;;;5.33;100.00;98107.47;5163116;28;20029;-79
2021/11/27 11:35:08;;;;;;;10.43;5.63;;;;;;;5.27;100.00;98110.41;5167607;28;20076;-78
2021/11/27 11:37:38;;;;;;;12.00;5.72;;;;;;;5.22;100.00;98103.78;5170194;28;20042;-79
2021/11/27 11:40:10;;;;;;;11.27;5.90;;;;;;;5.22;100.00;98104.63;5166882;28;20049;-80
2021/11/27 11:42:40;;;;;;;9.88;5.43;;;;;;;5.19;100.00;98104.78;5167066;28;20522;-78
2021/11/27 11:45:11;;;;;;;9.68;5.28;;;;;;;5.23;100.00;98108.91;5171867;28;20033;-79
2021/11/27 11:47:41;;;;;;;10.48;5.47;;;;;;;5.29;100.00;98113.72;5226545;23;20041;-80
2021/11/27 11:50:13;;;;;;;11.55;5.88;;;;;;;5.37;100.00;98113.31;5195246;28;20387;-80